Time;durP1;ratioP1;P1;durP2;ratioP2;P2;SDS_P1;SDS_P2;PMS_P1;PMS_P2;Temp;Humidity;BMP_temperature;BMP_pressure;BME280_temperature;BME280_humidity;BME280_pressure;Samples;Min_cycle;Max_cycle;Signal;HPM_P1;HPM_P2
2020/12/25 00:01:31;;;;;;;9.60;5.25;;;4.80;99.90;;;;;;5032489;28;20198;-81
2020/12/25 00:03:59;;;;;;;8.15;5.35;;;4.80;99.90;;;;;;5018456;28;20204;-80
2020/12/25 00:06:34;;;;;;;8.77;5.15;;;4.70;99.90;;;;;;5022257;28;20184;-83
2020/12/25 00:09:01;;;;;;;10.82;6.20;;;4.70;99.90;;;;;;5033177;28;20258;-83
2020/12/25 00:11:31;;;;;;;7.20;5.47;;;4.70;99.90;;;;;;5028323;28;20259;-83
2020/12/25 00:13:57;;;;;;;11.90;4.90;;;4.60;99.90;;;;;;5025506;28;20196;-82
2020/12/25 00:16:25;;;;;;;8.90;5.25;;;4.60;99.90;;;;;;5025989;28;20200;-83
2020/12/25 00:18:51;;;;;;;8.88;5.57;;;4.60;99.90;;;;;;5025055;28;20199;-83
2020/12/25 00:21:18;;;;;;;6.45;5.80;;;4.60;99.90;;;;;;5029787;28;20216;-84
2020/12/25 00:23:44;;;;;;;13.15;4.70;;;4.50;99.90;;;;;;5030459;28;20196;-83
2020/12/25 00:26:10;;;;;;;8.15;5.82;;;4.50;99.90;;;;;;5030017;28;20291;-82
2020/12/25 00:28:40;;;;;;;9.70;5.53;;;4.50;99.90;;;;;;5029533;28;20200;-82
2020/12/25 00:31:06;;;;;;;6.03;5.40;;;4.50;99.90;;;;;;5045886;28;20627;-83
2020/12/25 00:33:32;;;;;;;7.13;5.30;;;4.40;99.90;;;;;;5027849;28;20219;-81
2020/12/25 00:35:59;;;;;;;8.32;5.70;;;4.30;99.90;;;;;;5028063;28;20199;-83
2020/12/25 00:38:25;;;;;;;7.47;5.43;;;4.20;99.90;;;;;;5029871;28;20200;-84
2020/12/25 00:40:51;;;;;;;8.20;5.55;;;4.20;99.90;;;;;;5026958;28;20609;-83
2020/12/25 00:43:17;;;;;;;12.23;4.88;;;4.20;99.90;;;;;;5026658;28;20608;-83
2020/12/25 00:45:44;;;;;;;12.88;4.72;;;4.20;99.90;;;;;;5025676;28;20203;-82
2020/12/25 00:48:10;;;;;;;6.18;4.60;;;4.20;99.90;;;;;;5025124;28;20195;-81
2020/12/25 00:50:39;;;;;;;9.88;5.18;;;4.20;99.90;;;;;;5026291;28;20216;-83
2020/12/25 00:53:05;;;;;;;7.40;4.60;;;4.10;99.90;;;;;;5026235;28;20195;-81
2020/12/25 00:55:31;;;;;;;6.45;4.30;;;4.20;99.90;;;;;;5026847;28;20216;-82
2020/12/25 00:57:58;;;;;;;10.93;4.40;;;4.10;99.90;;;;;;5027492;28;20200;-81
2020/12/25 01:00:24;;;;;;;8.50;4.57;;;4.00;99.90;;;;;;5038166;28;20211;-82
2020/12/25 01:02:51;;;;;;;5.35;4.20;;;4.10;99.90;;;;;;5028553;28;20203;-83
2020/12/25 01:05:17;;;;;;;5.47;3.72;;;4.00;99.90;;;;;;5026575;28;20195;-82
2020/12/25 01:07:43;;;;;;;9.45;5.22;;;4.00;99.90;;;;;;5025519;28;20196;-82
2020/12/25 01:10:09;;;;;;;12.25;5.00;;;4.00;99.90;;;;;;5025801;28;20212;-82
2020/12/25 01:12:36;;;;;;;6.40;3.50;;;3.90;99.90;;;;;;5026433;28;20561;-82
2020/12/25 01:15:02;;;;;;;6.28;4.00;;;3.90;99.90;;;;;;5025522;28;20196;-82
2020/12/25 01:17:28;;;;;;;12.27;4.80;;;3.80;99.90;;;;;;5025670;28;20206;-82
2020/12/25 01:19:55;;;;;;;9.80;4.25;;;3.80;99.90;;;;;;5026154;28;20689;-83
2020/12/25 01:22:22;;;;;;;11.90;4.45;;;3.70;99.90;;;;;;5026061;28;20199;-83
2020/12/25 01:24:48;;;;;;;9.85;3.65;;;3.70;99.90;;;;;;5025372;28;20196;-80
2020/12/25 01:27:14;;;;;;;13.32;4.63;;;3.70;99.90;;;;;;5024721;28;20676;-82
2020/12/25 01:29:40;;;;;;;6.18;3.88;;;3.70;99.90;;;;;;5034059;28;20215;-83
2020/12/25 01:32:06;;;;;;;10.57;4.05;;;3.70;99.90;;;;;;5033420;28;20192;-84
2020/12/25 01:34:33;;;;;;;10.82;3.22;;;3.80;99.90;;;;;;5024710;28;20218;-82
2020/12/25 01:37:00;;;;;;;6.32;3.55;;;3.80;99.90;;;;;;5024739;28;20581;-81
2020/12/25 01:39:26;;;;;;;6.75;3.70;;;3.80;99.90;;;;;;5025592;28;20700;-83
2020/12/25 01:41:52;;;;;;;4.63;2.90;;;3.80;99.90;;;;;;5024825;28;20195;-83
2020/12/25 01:44:19;;;;;;;6.40;3.15;;;3.80;99.90;;;;;;5024875;28;20196;-80
2020/12/25 01:46:45;;;;;;;3.20;2.90;;;3.80;99.90;;;;;;5025549;28;20199;-84
2020/12/25 01:49:13;;;;;;;5.25;3.13;;;3.70;99.90;;;;;;5025075;28;20216;-83
2020/12/25 01:51:39;;;;;;;6.88;2.85;;;3.70;99.90;;;;;;5025464;28;20211;-81
2020/12/25 01:54:06;;;;;;;6.47;2.67;;;3.80;99.90;;;;;;5024868;28;20782;-83
2020/12/25 01:56:34;;;;;;;3.25;2.88;;;3.80;99.90;;;;;;5025118;28;20211;-81
2020/12/25 01:59:00;;;;;;;5.10;3.45;;;3.70;99.90;;;;;;5026907;28;20821;-83
2020/12/25 02:01:27;;;;;;;13.80;3.20;;;3.70;99.90;;;;;;5041015;28;20211;-83
2020/12/25 02:03:53;;;;;;;8.43;3.08;;;3.60;99.90;;;;;;5026666;28;20207;-82
2020/12/25 02:06:19;;;;;;;10.50;3.05;;;3.60;99.90;;;;;;5027179;28;20214;-82
2020/12/25 02:08:45;;;;;;;14.27;2.83;;;3.50;99.90;;;;;;5025709;28;20209;-83
2020/12/25 02:11:12;;;;;;;5.68;2.78;;;3.50;99.90;;;;;;5026038;28;20191;-83
2020/12/25 02:13:39;;;;;;;7.90;2.45;;;3.40;99.90;;;;;;5025431;28;20208;-82
2020/12/25 02:16:07;;;;;;;9.23;2.90;;;3.40;99.90;;;;;;5024362;28;20443;-82
2020/12/25 02:18:36;;;;;;;2.83;2.33;;;3.50;99.90;;;;;;5025199;28;20734;-81
2020/12/25 02:21:03;;;;;;;10.27;3.00;;;3.50;99.90;;;;;;5025342;28;20227;-81
2020/12/25 02:23:30;;;;;;;5.38;3.10;;;3.60;99.90;;;;;;5025563;28;20207;-83
2020/12/25 02:25:56;;;;;;;6.05;3.38;;;3.60;99.90;;;;;;5025219;28;20550;-84
2020/12/25 02:28:22;;;;;;;4.07;2.53;;;3.60;99.90;;;;;;5024298;28;20200;-83
2020/12/25 02:30:48;;;;;;;8.63;3.15;;;3.60;99.90;;;;;;5040826;28;20218;-83
2020/12/25 02:33:15;;;;;;;6.50;2.78;;;3.60;99.90;;;;;;5024064;28;20196;-83
2020/12/25 02:35:41;;;;;;;12.07;3.53;;;3.70;99.90;;;;;;5024770;28;20210;-83
2020/12/25 02:38:08;;;;;;;6.18;2.78;;;3.70;99.90;;;;;;5024468;28;20252;-83
2020/12/25 02:40:34;;;;;;;7.65;2.58;;;3.70;99.90;;;;;;5024566;28;20219;-82
2020/12/25 02:43:00;;;;;;;3.75;2.38;;;3.70;99.90;;;;;;5032684;28;20233;-82
2020/12/25 02:45:27;;;;;;;9.07;2.88;;;3.70;99.90;;;;;;5044682;28;20199;-83
2020/12/25 02:47:53;;;;;;;2.08;1.77;;;3.70;99.90;;;;;;5044047;28;20184;-83
2020/12/25 02:50:19;;;;;;;5.97;2.30;;;3.70;99.90;;;;;;5044193;28;20310;-82
2020/12/25 02:52:45;;;;;;;5.25;2.30;;;3.60;99.90;;;;;;5043273;28;20187;-82
2020/12/25 02:55:13;;;;;;;4.82;2.25;;;3.50;99.90;;;;;;5042851;28;20329;-83
2020/12/25 02:57:39;;;;;;;7.97;2.78;;;3.40;99.90;;;;;;5044541;28;20207;-83
2020/12/25 03:00:06;;;;;;;5.70;2.35;;;3.30;99.90;;;;;;5042174;28;20224;-82
2020/12/25 03:02:32;;;;;;;4.50;2.20;;;3.30;99.90;;;;;;5039045;28;20194;-83
2020/12/25 03:04:58;;;;;;;5.30;2.28;;;3.20;99.90;;;;;;5045311;28;20202;-82
2020/12/25 03:07:24;;;;;;;2.80;2.05;;;3.20;99.90;;;;;;5045273;28;20195;-82
2020/12/25 03:09:51;;;;;;;4.10;2.20;;;3.10;99.90;;;;;;5045301;28;20611;-83
2020/12/25 03:12:18;;;;;;;5.18;2.70;;;3.10;99.90;;;;;;5044192;28;20198;-83
2020/12/25 03:14:44;;;;;;;9.60;2.45;;;3.00;99.90;;;;;;5043800;28;20196;-82
2020/12/25 03:17:10;;;;;;;9.20;2.45;;;2.90;99.90;;;;;;5043988;28;20742;-83
2020/12/25 03:19:36;;;;;;;10.38;2.75;;;2.80;99.90;;;;;;5043982;28;20257;-83
2020/12/25 03:22:03;;;;;;;5.78;2.97;;;2.80;99.90;;;;;;5044020;28;20293;-82
2020/12/25 03:24:29;;;;;;;8.00;2.65;;;2.70;99.90;;;;;;5044149;28;20202;-83
2020/12/25 03:26:55;;;;;;;6.65;2.55;;;2.70;99.90;;;;;;5043813;28;20209;-83
2020/12/25 03:29:22;;;;;;;7.20;2.20;;;2.60;99.90;;;;;;5044538;28;20210;-82
2020/12/25 03:31:49;;;;;;;4.90;2.90;;;2.50;99.90;;;;;;5036102;28;20198;-83
2020/12/25 03:34:15;;;;;;;15.00;2.88;;;2.50;99.90;;;;;;5043374;28;20596;-83
2020/12/25 03:36:43;;;;;;;7.40;3.63;;;2.40;99.90;;;;;;5042627;28;20561;-82
2020/12/25 03:39:09;;;;;;;7.00;2.70;;;2.30;99.90;;;;;;5042316;28;20711;-82
2020/12/25 03:41:36;;;;;;;8.35;3.10;;;2.30;99.90;;;;;;5043143;28;20227;-82
2020/12/25 03:44:02;;;;;;;4.60;2.92;;;2.30;99.90;;;;;;5042704;28;20205;-82
2020/12/25 03:46:34;;;;;;;4.93;2.92;;;2.20;99.90;;;;;;5043023;28;20202;-81
2020/12/25 03:49:00;;;;;;;10.98;3.35;;;2.20;99.90;;;;;;5042873;28;20202;-83
2020/12/25 03:51:26;;;;;;;8.70;3.17;;;2.10;99.90;;;;;;5043607;28;20194;-83
2020/12/25 03:53:52;;;;;;;3.10;2.10;;;2.10;99.90;;;;;;5043530;28;20195;-81
2020/12/25 03:56:19;;;;;;;7.13;3.00;;;2.10;99.90;;;;;;5046369;28;20209;-82
2020/12/25 03:58:45;;;;;;;5.97;2.25;;;2.10;99.90;;;;;;5047622;28;20271;-82
2020/12/25 04:01:11;;;;;;;8.73;3.10;;;2.00;99.90;;;;;;5038087;28;20217;-82
2020/12/25 04:03:38;;;;;;;4.78;3.00;;;2.00;99.90;;;;;;5046659;28;20195;-82
2020/12/25 04:06:04;;;;;;;9.00;2.88;;;2.00;99.90;;;;;;5046539;28;20229;-82
2020/12/25 04:08:31;;;;;;;9.48;2.90;;;2.00;99.90;;;;;;5046870;28;20226;-83
2020/12/25 04:10:57;;;;;;;6.32;2.92;;;1.90;99.90;;;;;;5047604;28;20213;-83
2020/12/25 04:13:23;;;;;;;4.57;2.58;;;1.90;99.90;;;;;;5047396;28;20198;-82
2020/12/25 04:15:49;;;;;;;11.38;3.38;;;1.80;99.90;;;;;;5046610;28;20202;-81
2020/12/25 04:18:16;;;;;;;5.07;3.38;;;1.80;99.90;;;;;;5046146;28;20683;-83
2020/12/25 04:20:43;;;;;;;11.18;2.90;;;1.80;99.90;;;;;;5046743;28;20313;-82
2020/12/25 04:23:09;;;;;;;15.48;3.47;;;1.70;99.90;;;;;;5046375;28;20197;-82
2020/12/25 04:25:35;;;;;;;11.82;3.20;;;1.70;99.90;;;;;;5046465;28;20221;-83
2020/12/25 04:28:01;;;;;;;4.18;2.72;;;1.60;99.90;;;;;;5045721;28;20209;-83
2020/12/25 04:30:28;;;;;;;4.93;2.03;;;1.60;99.90;;;;;;5040255;28;20207;-83
2020/12/25 04:32:54;;;;;;;7.80;2.97;;;1.60;99.90;;;;;;5044020;28;20203;-83
2020/12/25 04:35:20;;;;;;;6.85;3.25;;;1.60;99.90;;;;;;5046603;28;20213;-82
2020/12/25 04:37:47;;;;;;;11.50;2.92;;;1.70;99.90;;;;;;5046010;28;20217;-83
2020/12/25 04:40:14;;;;;;;6.15;2.90;;;1.60;99.90;;;;;;5045455;28;20225;-82
2020/12/25 04:42:41;;;;;;;7.95;3.20;;;1.50;99.90;;;;;;5045504;28;20206;-82
2020/12/25 04:45:08;;;;;;;13.63;2.80;;;1.60;99.90;;;;;;5038548;28;20205;-81
2020/12/25 04:47:34;;;;;;;6.22;2.50;;;1.60;99.90;;;;;;5038185;28;20198;-81
2020/12/25 04:50:01;;;;;;;11.38;2.70;;;1.50;99.90;;;;;;5039521;28;20218;-81
2020/12/25 04:52:28;;;;;;;13.30;3.65;;;1.50;99.90;;;;;;5038802;28;20198;-82
2020/12/25 04:54:55;;;;;;;3.15;2.47;;;1.50;99.90;;;;;;5039542;28;20752;-82
2020/12/25 04:57:21;;;;;;;11.63;3.42;;;1.50;99.90;;;;;;5039176;28;20200;-83
2020/12/25 04:59:47;;;;;;;5.18;3.35;;;1.50;99.90;;;;;;5039807;28;20221;-81
2020/12/25 05:02:15;;;;;;;6.82;3.30;;;1.50;99.90;;;;;;5031180;28;20203;-81
2020/12/25 05:04:41;;;;;;;10.50;3.53;;;1.60;99.90;;;;;;5040271;28;20243;-81
2020/12/25 05:07:07;;;;;;;11.02;2.97;;;1.60;99.90;;;;;;5039924;28;20200;-81
2020/12/25 05:09:34;;;;;;;7.40;3.03;;;1.50;99.90;;;;;;5039786;28;20233;-83
2020/12/25 05:12:01;;;;;;;9.13;3.10;;;1.40;99.90;;;;;;5039898;28;20683;-82
2020/12/25 05:14:28;;;;;;;14.23;2.53;;;1.30;99.90;;;;;;5039449;28;20200;-81
2020/12/25 05:16:56;;;;;;;5.97;2.35;;;1.30;99.90;;;;;;5040237;28;20682;-79
2020/12/25 05:19:27;;;;;;;10.25;2.67;;;1.30;99.90;;;;;;5039883;28;20224;-81
2020/12/25 05:21:56;;;;;;;8.45;3.20;;;1.30;99.90;;;;;;5040462;28;20203;-80
2020/12/25 05:24:22;;;;;;;5.30;2.22;;;1.30;99.90;;;;;;5040237;28;20198;-81
2020/12/25 05:26:53;;;;;;;10.73;2.90;;;1.40;99.90;;;;;;5039768;28;20211;-81
2020/12/25 05:29:22;;;;;;;10.82;3.00;;;1.40;99.90;;;;;;5040209;28;20229;-82
2020/12/25 05:31:49;;;;;;;4.82;2.58;;;1.30;99.90;;;;;;5032180;28;20199;-81
2020/12/25 05:34:16;;;;;;;8.43;2.60;;;1.30;99.90;;;;;;5041169;28;20200;-81
2020/12/25 05:36:49;;;;;;;3.35;2.22;;;1.20;99.90;;;;;;5040830;28;20208;-81
2020/12/25 05:39:25;;;;;;;6.28;3.03;;;1.10;99.90;;;;;;5040494;28;20276;-81
2020/12/25 05:41:55;;;;;;;11.70;2.20;;;1.10;99.90;;;;;;5041491;28;20184;-81
2020/12/25 05:44:22;;;;;;;4.25;2.63;;;1.10;99.90;;;;;;5041257;28;20561;-80
2020/12/25 05:46:49;;;;;;;12.35;3.53;;;1.20;99.90;;;;;;5040333;28;20219;-82
2020/12/25 05:49:15;;;;;;;7.72;2.33;;;1.20;99.90;;;;;;5041770;28;20235;-82
2020/12/25 05:51:47;;;;;;;6.88;2.35;;;1.10;99.90;;;;;;5041605;28;20194;-81
2020/12/25 05:54:19;;;;;;;3.22;2.15;;;1.00;99.90;;;;;;5042575;28;20190;-81
2020/12/25 05:56:50;;;;;;;8.70;2.83;;;1.10;99.90;;;;;;5041835;28;20766;-81
2020/12/25 05:59:17;;;;;;;5.10;2.30;;;1.00;99.90;;;;;;5042290;28;20269;-81
2020/12/25 06:01:45;;;;;;;7.35;1.92;;;1.00;99.90;;;;;;5041847;28;20213;-83
2020/12/25 06:04:11;;;;;;;6.68;3.08;;;1.00;99.90;;;;;;5028002;28;20203;-84
2020/12/25 06:06:39;;;;;;;4.60;2.05;;;1.00;99.90;;;;;;5027009;28;20235;-83
2020/12/25 06:09:11;;;;;;;4.65;2.40;;;1.00;99.90;;;;;;5027250;28;20219;-83
2020/12/25 06:11:37;;;;;;;8.68;2.38;;;1.00;99.90;;;;;;5026642;28;20203;-82
2020/12/25 06:14:03;;;;;;;3.60;3.28;;;1.10;99.90;;;;;;5026013;28;20200;-82
2020/12/25 06:16:31;;;;;;;4.03;2.05;;;1.10;99.90;;;;;;5025488;28;20201;-82
2020/12/25 06:19:05;;;;;;;7.72;2.83;;;1.20;99.90;;;;;;5026415;28;20196;-82
2020/12/25 06:21:43;;;;;;;11.00;3.13;;;1.30;99.90;;;;;;5026718;28;20201;-83
2020/12/25 06:24:14;;;;;;;7.95;2.83;;;1.40;99.90;;;;;;5025228;28;20203;-82
2020/12/25 06:26:41;;;;;;;7.40;2.60;;;1.60;99.90;;;;;;5025221;28;20212;-82
2020/12/25 06:29:07;;;;;;;6.15;2.92;;;1.70;99.90;;;;;;5028475;28;20237;-82
2020/12/25 06:31:37;;;;;;;7.18;2.80;;;1.80;99.90;;;;;;5040133;28;20198;-82
2020/12/25 06:34:04;;;;;;;13.10;2.90;;;1.80;99.90;;;;;;5026304;28;20285;-82
2020/12/25 06:36:31;;;;;;;7.18;2.72;;;1.90;99.90;;;;;;5026365;28;20195;-82
2020/12/25 06:38:58;;;;;;;15.43;3.45;;;2.00;99.90;;;;;;5024204;28;20204;-83
2020/12/25 06:41:27;;;;;;;6.82;3.22;;;2.10;99.90;;;;;;5023863;28;20217;-82
2020/12/25 06:43:54;;;;;;;6.00;3.03;;;2.10;99.90;;;;;;5023945;28;20202;-81
2020/12/25 06:46:29;;;;;;;8.13;3.17;;;2.20;99.90;;;;;;5023146;28;20192;-83
2020/12/25 06:49:00;;;;;;;7.75;3.15;;;2.30;99.90;;;;;;5021719;28;20260;-81
2020/12/25 06:51:28;;;;;;;6.88;2.55;;;2.30;99.90;;;;;;5022459;28;20196;-81
2020/12/25 06:53:56;;;;;;;8.57;2.72;;;2.30;99.90;;;;;;5022740;28;20205;-82
2020/12/25 06:56:22;;;;;;;17.75;3.30;;;2.40;99.90;;;;;;5022370;28;20233;-81
2020/12/25 06:58:50;;;;;;;9.38;3.50;;;2.40;99.90;;;;;;5022643;28;20726;-80
2020/12/25 07:01:18;;;;;;;7.63;3.22;;;2.40;99.90;;;;;;5030815;28;20207;-82
2020/12/25 07:03:45;;;;;;;7.10;2.97;;;2.40;99.90;;;;;;5021903;28;20206;-82
2020/12/25 07:06:12;;;;;;;9.02;2.72;;;2.50;99.90;;;;;;5022617;28;20202;-84
2020/12/25 07:08:48;;;;;;;10.25;2.83;;;2.50;99.90;;;;;;5022502;28;20219;-82
2020/12/25 07:11:17;;;;;;;4.80;2.35;;;2.50;99.90;;;;;;5022426;28;20194;-82
2020/12/25 07:13:43;;;;;;;6.47;2.80;;;2.60;99.90;;;;;;5022585;28;20206;-81
2020/12/25 07:16:10;;;;;;;8.65;2.80;;;2.60;99.90;;;;;;5021972;28;20210;-81
2020/12/25 07:18:36;;;;;;;7.72;2.70;;;2.60;99.90;;;;;;5022088;28;20253;-81
2020/12/25 07:21:04;;;;;;;4.97;2.33;;;2.70;99.90;;;;;;5018600;28;20229;-82
2020/12/25 07:23:31;;;;;;;7.40;2.13;;;2.70;99.90;;;;;;5019162;28;20211;-81
2020/12/25 07:25:59;;;;;;;17.83;3.15;;;2.70;99.90;;;;;;5018848;28;20202;-81
2020/12/25 07:28:26;;;;;;;8.15;3.40;;;2.70;99.90;;;;;;5018387;28;20199;-82
2020/12/25 07:30:53;;;;;;;5.80;2.10;;;2.70;99.90;;;;;;5034371;28;20221;-80
2020/12/25 07:33:20;;;;;;;3.33;2.50;;;2.80;99.90;;;;;;5039108;28;20294;-80
2020/12/25 07:35:47;;;;;;;8.02;2.35;;;2.80;99.90;;;;;;5038484;28;20205;-79
2020/12/25 07:38:14;;;;;;;11.95;2.85;;;2.80;99.90;;;;;;5038941;28;20194;-80
2020/12/25 07:40:41;;;;;;;5.03;3.05;;;2.80;99.90;;;;;;5038540;28;20228;-81
2020/12/25 07:43:08;;;;;;;4.80;2.25;;;2.80;99.90;;;;;;5038651;28;20201;-82
2020/12/25 07:45:35;;;;;;;11.05;2.47;;;2.80;99.90;;;;;;5038062;28;20606;-81
2020/12/25 07:48:03;;;;;;;9.20;2.90;;;2.80;99.90;;;;;;5037416;28;20199;-80
2020/12/25 07:50:34;;;;;;;4.80;2.45;;;2.80;99.90;;;;;;5037921;28;20235;-80
2020/12/25 07:53:00;;;;;;;4.40;2.10;;;2.70;99.90;;;;;;5038581;28;20199;-81
2020/12/25 07:55:28;;;;;;;3.17;1.92;;;2.70;99.90;;;;;;5037356;28;20206;-79
2020/12/25 07:57:55;;;;;;;8.90;2.55;;;2.70;99.90;;;;;;5038533;28;20733;-79
2020/12/25 08:00:23;;;;;;;6.15;2.80;;;2.60;99.90;;;;;;5031054;28;20268;-81
2020/12/25 08:02:53;;;;;;;6.95;2.72;;;2.60;99.90;;;;;;5018763;28;20256;-79
2020/12/25 08:05:19;;;;;;;12.02;2.45;;;2.60;99.90;;;;;;5019054;28;20199;-80
2020/12/25 08:07:46;;;;;;;3.58;2.33;;;2.50;99.90;;;;;;5018599;28;20259;-81
2020/12/25 08:10:14;;;;;;;6.53;2.75;;;2.60;99.90;;;;;;5017646;28;20593;-80
2020/12/25 08:12:43;;;;;;;2.45;2.25;;;2.60;99.90;;;;;;5018992;28;20741;-81
2020/12/25 08:15:11;;;;;;;5.50;2.53;;;2.60;99.90;;;;;;5018631;28;20225;-81
2020/12/25 08:17:38;;;;;;;6.35;2.15;;;2.50;99.90;;;;;;5018820;28;20199;-79
2020/12/25 08:20:05;;;;;;;6.25;2.47;;;2.60;99.90;;;;;;5019241;28;20258;-80
2020/12/25 08:22:31;;;;;;;3.72;2.25;;;2.60;99.90;;;;;;5019026;28;20202;-82
2020/12/25 08:24:58;;;;;;;3.13;1.67;;;2.60;99.90;;;;;;5018649;28;20202;-81
2020/12/25 08:27:24;;;;;;;6.20;2.42;;;2.60;99.90;;;;;;5019697;28;20195;-82
2020/12/25 08:29:51;;;;;;;3.53;2.10;;;2.70;99.90;;;;;;5027390;28;20213;-81
2020/12/25 08:32:18;;;;;;;4.93;1.70;;;2.80;99.90;;;;;;5027035;28;20565;-81
2020/12/25 08:34:45;;;;;;;4.65;1.75;;;2.90;99.90;;;;;;5019720;28;20683;-81
2020/12/25 08:37:14;;;;;;;4.85;2.30;;;2.90;99.90;;;;;;5019170;28;20198;-81
2020/12/25 08:39:41;;;;;;;3.28;2.42;;;3.00;99.90;;;;;;5018921;28;20227;-81
2020/12/25 08:42:09;;;;;;;5.90;2.20;;;3.20;99.90;;;;;;5023243;28;20221;-81
2020/12/25 08:44:36;;;;;;;6.68;2.72;;;3.30;99.90;;;;;;5023498;28;20237;-80
2020/12/25 08:47:10;;;;;;;7.15;2.85;;;3.50;99.90;;;;;;5022816;28;20199;-80
2020/12/25 08:49:36;;;;;;;3.53;2.35;;;3.70;99.90;;;;;;5022812;28;20287;-81
2020/12/25 08:52:03;;;;;;;4.45;2.33;;;4.00;99.90;;;;;;5023027;28;20199;-82
2020/12/25 08:54:31;;;;;;;4.63;2.13;;;4.20;99.90;;;;;;5023019;28;20192;-81
2020/12/25 08:56:58;;;;;;;7.90;3.25;;;4.30;99.90;;;;;;5022410;28;20195;-80
2020/12/25 08:59:24;;;;;;;1.77;1.65;;;4.30;99.90;;;;;;5027332;28;20576;-81
2020/12/25 09:01:52;;;;;;;4.97;2.60;;;4.30;99.90;;;;;;5033217;28;20231;-80
2020/12/25 09:04:19;;;;;;;5.75;2.13;;;4.20;99.90;;;;;;5022556;28;20683;-81
2020/12/25 09:06:49;;;;;;;6.88;3.35;;;4.30;99.90;;;;;;5022563;28;20202;-80
2020/12/25 09:09:16;;;;;;;6.28;1.70;;;4.40;99.90;;;;;;5022618;28;20230;-81
2020/12/25 09:11:42;;;;;;;6.97;1.52;;;4.80;99.90;;;;;;5023158;28;20202;-80
2020/12/25 09:14:09;;;;;;;4.07;2.10;;;4.90;99.90;;;;;;5022614;28;20245;-81
2020/12/25 09:16:41;;;;;;;8.23;2.85;;;4.90;99.90;;;;;;5021664;28;20323;-79
2020/12/25 09:19:07;;;;;;;3.67;1.27;;;4.80;99.90;;;;;;5023184;28;20228;-80
2020/12/25 09:21:33;;;;;;;7.43;1.90;;;4.80;99.90;;;;;;5022307;28;20219;-81
2020/12/25 09:24:00;;;;;;;11.05;2.53;;;4.80;99.90;;;;;;5022915;28;20205;-80
2020/12/25 09:26:42;;;;;;;8.05;2.20;;;4.70;99.90;;;;;;5022405;28;20631;-79
2020/12/25 09:29:08;;;;;;;6.47;2.60;;;4.60;99.90;;;;;;5024233;28;20231;-80
2020/12/25 09:31:34;;;;;;;6.50;2.25;;;4.60;99.90;;;;;;5041840;28;20191;-80
2020/12/25 09:34:04;;;;;;;4.60;1.98;;;4.50;99.90;;;;;;5041416;28;20257;-81
2020/12/25 09:39:16;;;;;;;8.30;2.22;;;4.60;99.90;;;;;;5039115;28;20234;-81
2020/12/25 09:41:43;;;;;;;5.97;1.80;;;4.60;99.90;;;;;;5040657;28;20199;-81
2020/12/25 09:44:09;;;;;;;3.63;1.77;;;4.70;99.90;;;;;;5040391;28;20225;-82
2020/12/25 09:46:41;;;;;;;5.40;1.70;;;4.80;99.90;;;;;;5040799;28;20200;-80
2020/12/25 09:49:09;;;;;;;8.25;2.00;;;4.80;99.90;;;;;;5039819;28;20219;-81
2020/12/25 09:51:35;;;;;;;4.70;2.30;;;4.90;99.90;;;;;;5040789;28;20222;-81
2020/12/25 09:54:01;;;;;;;7.97;1.83;;;4.90;99.90;;;;;;5039461;28;20198;-81
2020/12/25 09:56:28;;;;;;;5.65;1.50;;;4.90;99.90;;;;;;5040174;28;20230;-82
2020/12/25 09:58:55;;;;;;;6.85;2.08;;;4.90;99.90;;;;;;5040072;28;20203;-81
2020/12/25 10:01:21;;;;;;;6.88;1.80;;;5.00;99.90;;;;;;5040687;28;20279;-82
2020/12/25 10:03:47;;;;;;;2.25;1.42;;;4.90;99.90;;;;;;5040028;28;20196;-80
2020/12/25 10:06:18;;;;;;;4.00;1.80;;;4.80;99.90;;;;;;5037834;28;20222;-80
2020/12/25 10:08:45;;;;;;;12.07;1.73;;;4.80;99.90;;;;;;5037075;28;20211;-78
2020/12/25 10:11:11;;;;;;;5.63;1.45;;;5.00;99.90;;;;;;5037163;28;20560;-79
2020/12/25 10:13:41;;;;;;;4.30;1.40;;;5.10;99.90;;;;;;5037212;28;20202;-79
2020/12/25 10:16:12;;;;;;;1.60;1.10;;;5.30;99.90;;;;;;5036877;28;20192;-80
2020/12/25 10:18:40;;;;;;;4.10;1.20;;;5.40;99.90;;;;;;5037255;28;20266;-79
2020/12/25 10:21:20;;;;;;;6.65;1.83;;;5.50;99.90;;;;;;5037876;28;20212;-80
2020/12/25 10:23:46;;;;;;;7.15;1.73;;;6.00;99.90;;;;;;5038058;28;20219;-80
2020/12/25 10:26:14;;;;;;;2.75;1.40;;;6.30;99.90;;;;;;5038081;28;20195;-80
2020/12/25 10:28:45;;;;;;;4.10;1.40;;;6.70;99.90;;;;;;5037587;28;20207;-79
2020/12/25 10:31:25;;;;;;;3.28;1.58;;;7.20;99.90;;;;;;5034256;28;20192;-82
2020/12/25 10:33:51;;;;;;;3.42;1.42;;;8.10;99.90;;;;;;5018104;28;20211;-79
2020/12/25 10:36:23;;;;;;;4.68;1.88;;;8.80;99.90;;;;;;5017687;28;20290;-79
2020/12/25 10:38:50;;;;;;;3.40;1.58;;;8.90;99.90;;;;;;5017902;28;20208;-80
2020/12/25 10:41:16;;;;;;;2.17;1.40;;;8.70;99.90;;;;;;5017770;28;20218;-80
2020/12/25 10:43:42;;;;;;;2.47;1.35;;;8.80;99.90;;;;;;5026812;28;20255;-82
2020/12/25 10:46:08;;;;;;;2.92;1.60;;;8.70;99.90;;;;;;5030841;28;20200;-82
2020/12/25 10:48:35;;;;;;;3.40;1.40;;;8.50;99.90;;;;;;5021278;28;20566;-82
2020/12/25 10:51:02;;;;;;;2.97;1.20;;;8.20;99.90;;;;;;5022028;28;20216;-82
2020/12/25 10:53:28;;;;;;;4.82;1.83;;;8.00;99.90;;;;;;5020930;28;20212;-81
2020/12/25 10:55:54;;;;;;;3.33;1.20;;;7.80;99.90;;;;;;5020637;28;20208;-79
2020/12/25 10:58:20;;;;;;;7.13;1.92;;;7.70;99.90;;;;;;5021787;28;20250;-82
2020/12/25 11:00:48;;;;;;;13.18;1.73;;;7.50;99.90;;;;;;5036723;28;20220;-80
2020/12/25 11:03:14;;;;;;;2.35;1.20;;;7.40;99.90;;;;;;5039990;28;20209;-82
2020/12/25 11:05:41;;;;;;;1.98;1.70;;;7.30;99.90;;;;;;5040164;28;20199;-81
2020/12/25 11:08:09;;;;;;;4.10;1.50;;;7.20;99.90;;;;;;5039176;28;20234;-81
2020/12/25 11:10:35;;;;;;;5.30;1.65;;;6.80;99.90;;;;;;5039159;28;20209;-80
2020/12/25 11:13:02;;;;;;;4.70;1.80;;;6.60;99.90;;;;;;5039582;28;20200;-82
2020/12/25 11:15:28;;;;;;;5.50;1.45;;;6.90;99.90;;;;;;5039791;28;20643;-80
2020/12/25 11:17:54;;;;;;;2.38;1.50;;;7.30;99.90;;;;;;5038837;28;20198;-81
2020/12/25 11:20:20;;;;;;;3.47;1.50;;;7.60;99.90;;;;;;5039837;28;20234;-82
2020/12/25 11:22:47;;;;;;;5.97;1.77;;;7.90;99.90;;;;;;5039757;28;20200;-81
2020/12/25 11:25:14;;;;;;;6.10;2.22;;;7.80;99.90;;;;;;5039613;28;20200;-82
2020/12/25 11:27:40;;;;;;;3.08;1.40;;;7.70;99.90;;;;;;5039019;28;20206;-82
2020/12/25 11:30:06;;;;;;;4.45;1.40;;;7.40;99.90;;;;;;5037649;28;20561;-82
2020/12/25 11:32:32;;;;;;;4.70;1.50;;;7.20;99.90;;;;;;5032971;28;20200;-81
2020/12/25 11:34:59;;;;;;;3.53;1.50;;;7.20;99.90;;;;;;5039936;28;20208;-81
2020/12/25 11:37:25;;;;;;;10.85;1.67;;;7.30;99.90;;;;;;5039476;28;20716;-81
2020/12/25 11:39:52;;;;;;;9.55;1.30;;;7.50;99.90;;;;;;5039199;28;20239;-83
2020/12/25 11:42:19;;;;;;;7.00;1.70;;;7.80;99.90;;;;;;5038829;28;20231;-82
2020/12/25 11:44:45;;;;;;;9.90;2.20;;;7.90;99.90;;;;;;5039414;28;20738;-82
2020/12/25 11:47:11;;;;;;;2.88;1.35;;;8.20;99.90;;;;;;5037986;28;20198;-82
2020/12/25 11:49:37;;;;;;;4.80;1.50;;;8.50;99.90;;;;;;5039234;28;20219;-80
2020/12/25 11:52:04;;;;;;;8.98;1.65;;;8.80;99.90;;;;;;5038925;28;20213;-81
2020/12/25 11:54:30;;;;;;;4.00;2.25;;;8.90;99.90;;;;;;5038579;28;20207;-81
2020/12/25 11:56:57;;;;;;;3.78;1.23;;;9.10;99.90;;;;;;5037671;28;20272;-79
2020/12/25 11:59:23;;;;;;;3.28;1.45;;;9.50;99.90;;;;;;5037685;28;20240;-80
2020/12/25 12:01:49;;;;;;;5.72;1.85;;;9.90;99.90;;;;;;5028751;28;20214;-78
2020/12/25 12:04:16;;;;;;;5.88;1.35;;;10.00;99.90;;;;;;5018636;28;20203;-81
2020/12/25 12:06:42;;;;;;;3.47;1.33;;;10.30;99.90;;;;;;5018239;28;20207;-79
2020/12/25 12:09:08;;;;;;;3.78;1.67;;;10.40;99.90;;;;;;5018284;28;20218;-81
2020/12/25 12:11:41;;;;;;;4.65;1.45;;;10.10;99.90;;;;;;5017831;28;20199;-81
2020/12/25 12:14:08;;;;;;;12.05;2.05;;;9.90;99.90;;;;;;5018237;28;20190;-81
2020/12/25 12:16:37;;;;;;;4.70;1.63;;;9.90;99.90;;;;;;5019661;28;20569;-81
2020/12/25 12:19:03;;;;;;;4.45;1.40;;;9.70;99.90;;;;;;5022178;28;20202;-81
2020/12/25 12:21:30;;;;;;;4.00;1.77;;;9.50;99.90;;;;;;5021899;28;20226;-81
2020/12/25 12:23:56;;;;;;;4.22;1.67;;;9.30;99.90;;;;;;5021079;28;20200;-81
2020/12/25 12:26:23;;;;;;;5.97;2.60;;;9.20;99.90;;;;;;5020386;28;20256;-78
2020/12/25 12:28:49;;;;;;;7.18;1.75;;;9.20;99.90;;;;;;5024018;28;20198;-80
2020/12/25 12:31:16;;;;;;;3.85;1.67;;;9.10;99.90;;;;;;5025090;28;20237;-80
2020/12/25 12:33:43;;;;;;;3.35;1.00;;;9.10;99.90;;;;;;5041111;28;20210;-79
2020/12/25 12:36:09;;;;;;;6.72;2.03;;;9.00;99.90;;;;;;5040499;28;20292;-80
2020/12/25 12:38:35;;;;;;;5.28;1.75;;;8.90;99.90;;;;;;5040231;28;20193;-80
2020/12/25 12:41:02;;;;;;;5.40;1.85;;;8.70;99.90;;;;;;5040269;28;20211;-79
2020/12/25 12:43:28;;;;;;;3.95;1.25;;;8.50;99.90;;;;;;5040013;28;20620;-81
2020/12/25 12:45:54;;;;;;;7.93;1.50;;;8.20;99.90;;;;;;5039566;28;20196;-79
2020/12/25 12:48:21;;;;;;;7.18;1.35;;;8.10;99.90;;;;;;5040061;28;20307;-81
2020/12/25 12:50:49;;;;;;;8.25;1.33;;;8.00;99.90;;;;;;5040118;28;20688;-80
2020/12/25 12:53:15;;;;;;;6.10;1.67;;;7.90;99.90;;;;;;5040637;28;20201;-81
2020/12/25 12:55:41;;;;;;;5.53;1.50;;;8.20;99.90;;;;;;5039614;28;20224;-81
2020/12/25 12:58:08;;;;;;;4.65;1.88;;;8.10;99.90;;;;;;5039813;28;20192;-80